Time;durP1;ratioP1;P1;durP2;ratioP2;P2;SDS_P1;SDS_P2;PMS_P1;PMS_P2;Temp;Humidity;BMP_temperature;BMP_pressure;BME280_temperature;BME280_humidity;BME280_pressure;Samples;Min_cycle;Max_cycle;Signal;HPM_P1;HPM_P2
2024/02/18 00:01:00;;;;;;;22.97;14.03;;;5.70;99.90;;;;;;4129276;28;20077;-62
2024/02/18 00:03:01;;;;;;;26.90;13.83;;;5.70;99.90;;;;;;4128477;28;20022;-58
2024/02/18 00:05:04;;;;;;;24.00;14.10;;;5.70;99.90;;;;;;4128819;28;20026;-62
2024/02/18 00:07:06;;;;;;;24.83;14.40;;;5.70;99.90;;;;;;4128788;28;20073;-61
2024/02/18 00:09:07;;;;;;;29.07;14.30;;;5.70;99.90;;;;;;4128636;28;20047;-63
2024/02/18 00:11:08;;;;;;;25.53;14.17;;;5.70;99.90;;;;;;4129324;28;20711;-61
2024/02/18 00:13:10;;;;;;;24.60;13.93;;;5.70;99.90;;;;;;4127997;28;20050;-62
2024/02/18 00:15:11;;;;;;;25.13;14.37;;;5.70;99.90;;;;;;4128766;28;20038;-61
2024/02/18 00:17:12;;;;;;;24.70;13.13;;;5.80;99.90;;;;;;4127858;28;20045;-66
2024/02/18 00:19:14;;;;;;;24.87;13.13;;;5.80;99.90;;;;;;4128935;28;20034;-61
2024/02/18 00:21:17;;;;;;;22.33;12.83;;;5.80;99.90;;;;;;4127582;28;20410;-60
2024/02/18 00:23:18;;;;;;;27.63;13.90;;;5.80;99.90;;;;;;4129158;28;20042;-63
2024/02/18 00:25:19;;;;;;;23.87;14.00;;;5.90;99.90;;;;;;4127855;28;20116;-64
2024/02/18 00:27:21;;;;;;;23.37;14.07;;;5.90;99.90;;;;;;4129525;28;20089;-63
2024/02/18 00:29:22;;;;;;;21.40;12.63;;;5.90;99.90;;;;;;4128235;28;20050;-59
2024/02/18 00:31:23;;;;;;;28.23;15.20;;;5.90;99.90;;;;;;4128578;28;20426;-65
2024/02/18 00:33:25;;;;;;;24.33;14.90;;;5.90;99.90;;;;;;4128390;28;20042;-61
2024/02/18 00:35:27;;;;;;;30.10;17.13;;;5.90;99.90;;;;;;4127912;28;20038;-60
2024/02/18 00:37:28;;;;;;;30.07;16.73;;;5.90;99.90;;;;;;4128761;28;20052;-64
2024/02/18 00:39:29;;;;;;;29.10;15.43;;;5.80;99.90;;;;;;4126365;28;20069;-62
2024/02/18 00:41:31;;;;;;;27.67;15.10;;;5.90;99.90;;;;;;4129265;28;20061;-61
2024/02/18 00:43:32;;;;;;;25.83;14.87;;;5.80;99.90;;;;;;4127807;28;20433;-62
2024/02/18 00:45:34;;;;;;;28.77;16.13;;;5.80;99.90;;;;;;4128617;28;20101;-65
2024/02/18 00:47:35;;;;;;;26.67;15.43;;;5.90;99.90;;;;;;4127884;28;20085;-62
2024/02/18 00:49:36;;;;;;;29.50;15.60;;;5.90;99.90;;;;;;4129248;28;20105;-62
2024/02/18 00:51:37;;;;;;;22.63;12.83;;;5.80;99.90;;;;;;4127955;28;20022;-63
2024/02/18 00:53:39;;;;;;;25.60;16.33;;;5.90;99.90;;;;;;4128454;28;20042;-63
2024/02/18 00:55:43;;;;;;;28.83;17.47;;;5.80;99.90;;;;;;4128417;28;20466;-63
2024/02/18 00:57:45;;;;;;;31.10;17.40;;;5.70;99.90;;;;;;4128970;28;20042;-66
2024/02/18 00:59:46;;;;;;;32.33;17.23;;;5.60;99.90;;;;;;4127798;28;20162;-58
2024/02/18 01:01:47;;;;;;;27.70;16.33;;;5.60;99.90;;;;;;4127982;28;20738;-64
2024/02/18 01:03:48;;;;;;;30.73;15.93;;;5.50;99.90;;;;;;4128044;28;20018;-58
2024/02/18 01:05:50;;;;;;;27.33;16.33;;;5.50;99.90;;;;;;4127881;28;20080;-56
2024/02/18 01:07:52;;;;;;;27.70;16.13;;;5.50;99.90;;;;;;4128617;28;20101;-54
2024/02/18 01:09:53;;;;;;;25.57;14.93;;;5.50;99.90;;;;;;4127625;28;20030;-66
2024/02/18 01:11:54;;;;;;;26.53;15.60;;;5.40;99.90;;;;;;4128540;28;20030;-64
2024/02/18 01:13:56;;;;;;;28.60;16.90;;;5.40;99.90;;;;;;4128175;28;20112;-60
2024/02/18 01:15:58;;;;;;;31.77;18.07;;;5.40;99.90;;;;;;4128149;28;20094;-63
2024/02/18 01:17:59;;;;;;;28.23;15.50;;;5.30;99.90;;;;;;4127621;28;20553;-62
2024/02/18 01:20:00;;;;;;;27.13;16.17;;;5.30;99.90;;;;;;4128246;28;20038;-64
2024/02/18 01:22:03;;;;;;;27.27;15.90;;;5.30;99.90;;;;;;4127414;28;20054;-60
2024/02/18 01:24:04;;;;;;;27.43;15.60;;;5.30;99.90;;;;;;4128864;28;20388;-59
2024/02/18 01:26:06;;;;;;;29.70;16.20;;;5.40;99.90;;;;;;4127775;28;20046;-60
2024/02/18 01:28:07;;;;;;;27.63;15.67;;;5.40;99.90;;;;;;4128111;28;20268;-59
2024/02/18 01:30:09;;;;;;;24.83;14.90;;;5.40;99.90;;;;;;4127768;28;20085;-61
2024/02/18 01:32:10;;;;;;;29.33;17.63;;;5.40;99.90;;;;;;4127688;28;20046;-62
2024/02/18 01:34:11;;;;;;;27.10;17.40;;;5.50;99.90;;;;;;4127958;28;20027;-60
2024/02/18 01:36:12;;;;;;;28.93;16.43;;;5.50;99.90;;;;;;4126922;28;20034;-59
2024/02/18 01:38:14;;;;;;;28.67;16.23;;;5.50;99.90;;;;;;4128233;28;20384;-63
2024/02/18 01:40:15;;;;;;;27.40;14.33;;;5.50;99.90;;;;;;4127434;28;20699;-62
2024/02/18 01:42:16;;;;;;;25.67;14.60;;;5.50;99.90;;;;;;4128527;28;20411;-62
2024/02/18 01:44:17;;;;;;;24.73;15.03;;;5.60;99.90;;;;;;4127885;28;20085;-63
2024/02/18 01:46:19;;;;;;;23.43;13.70;;;5.60;99.90;;;;;;4129752;28;20398;-60
2024/02/18 01:48:22;;;;;;;22.80;14.47;;;5.60;99.90;;;;;;4130362;28;20454;-61
2024/02/18 01:50:24;;;;;;;25.40;14.40;;;5.60;99.90;;;;;;4131079;28;20117;-63
2024/02/18 01:52:26;;;;;;;26.00;14.60;;;5.60;99.90;;;;;;4130042;28;20054;-62
2024/02/18 01:54:33;;;;;;;22.43;14.23;;;5.60;99.90;;;;;;4131232;28;20544;-59
2024/02/18 01:56:34;;;;;;;24.37;13.97;;;5.60;99.90;;;;;;4130539;28;20108;-61
2024/02/18 01:58:36;;;;;;;27.00;15.77;;;5.70;99.90;;;;;;4131453;28;20116;-59
2024/02/18 02:00:39;;;;;;;22.33;14.17;;;5.70;99.90;;;;;;4129648;28;20092;-58
2024/02/18 02:02:42;;;;;;;26.23;14.43;;;5.70;99.90;;;;;;4131060;28;20494;-63
2024/02/18 02:04:44;;;;;;;25.67;15.03;;;5.70;99.90;;;;;;4130412;28;20056;-55
2024/02/18 02:06:46;;;;;;;23.97;13.70;;;5.70;99.90;;;;;;4131377;28;20104;-63
2024/02/18 02:08:47;;;;;;;22.73;14.83;;;5.70;99.90;;;;;;4129872;28;20042;-57
2024/02/18 02:10:50;;;;;;;25.27;16.33;;;5.80;99.90;;;;;;4130490;28;20031;-61
2024/02/18 02:12:52;;;;;;;24.83;15.30;;;5.70;99.90;;;;;;4130576;28;20036;-62
2024/02/18 02:14:53;;;;;;;28.50;15.87;;;5.70;99.90;;;;;;4130097;28;20077;-63
2024/02/18 02:16:54;;;;;;;27.90;16.07;;;5.70;99.90;;;;;;4131110;28;20031;-64
2024/02/18 02:18:57;;;;;;;23.03;15.03;;;5.70;99.90;;;;;;4129408;28;20047;-57
2024/02/18 02:20:58;;;;;;;27.70;16.63;;;5.80;99.90;;;;;;4130972;28;20093;-62
2024/02/18 02:22:59;;;;;;;23.17;15.20;;;5.80;99.90;;;;;;4129900;28;20038;-60
2024/02/18 02:25:01;;;;;;;28.33;16.67;;;5.70;99.90;;;;;;4130660;28;20042;-61
2024/02/18 02:27:05;;;;;;;32.00;17.17;;;5.70;99.90;;;;;;4130345;28;20144;-62
2024/02/18 02:29:15;;;;;;;29.90;18.13;;;5.70;99.90;;;;;;4131323;28;20380;-59
2024/02/18 02:31:17;;;;;;;29.67;16.60;;;5.70;99.90;;;;;;4129568;28;20556;-64
2024/02/18 02:33:20;;;;;;;41.97;23.37;;;5.70;99.90;;;;;;4131353;28;20280;-62
2024/02/18 02:35:21;;;;;;;44.87;24.20;;;5.70;99.90;;;;;;4128905;28;20565;-55
2024/02/18 02:37:22;;;;;;;44.47;23.70;;;5.70;99.90;;;;;;4130715;28;20034;-62
2024/02/18 02:39:23;;;;;;;30.07;17.33;;;5.70;99.90;;;;;;4129020;28;20479;-57
2024/02/18 02:41:25;;;;;;;29.63;16.53;;;5.70;99.90;;;;;;4129719;28;20050;-57
2024/02/18 02:43:26;;;;;;;25.10;15.17;;;5.80;99.90;;;;;;4130046;28;20430;-62
2024/02/18 02:45:27;;;;;;;24.13;13.93;;;5.80;99.90;;;;;;4130257;28;20026;-61
2024/02/18 02:47:28;;;;;;;22.87;13.70;;;5.80;99.90;;;;;;4129864;28;20486;-62
2024/02/18 02:49:30;;;;;;;24.73;13.50;;;5.80;99.90;;;;;;4129300;28;20050;-59
2024/02/18 02:51:31;;;;;;;23.07;13.80;;;5.90;99.90;;;;;;4130479;28;20030;-61
2024/02/18 02:53:32;;;;;;;25.57;14.13;;;5.90;99.90;;;;;;4128749;28;20042;-60
2024/02/18 02:55:34;;;;;;;31.43;16.50;;;5.90;99.90;;;;;;4130717;28;20042;-61
2024/02/18 02:57:35;;;;;;;23.57;14.90;;;5.90;99.90;;;;;;4128540;28;20030;-63
2024/02/18 02:59:36;;;;;;;23.83;14.57;;;5.90;99.90;;;;;;4130375;28;20062;-62
2024/02/18 03:01:37;;;;;;;24.77;14.97;;;5.90;99.90;;;;;;4129082;28;20092;-61
2024/02/18 03:03:39;;;;;;;26.97;15.57;;;5.90;99.90;;;;;;4130465;28;20112;-56
2024/02/18 03:05:41;;;;;;;23.60;13.87;;;5.90;99.90;;;;;;4128311;28;20185;-63
2024/02/18 03:07:42;;;;;;;29.10;14.77;;;5.90;99.90;;;;;;4129199;28;20065;-62
2024/02/18 03:09:43;;;;;;;24.33;15.50;;;5.90;99.90;;;;;;4129113;28;20081;-64
2024/02/18 03:11:44;;;;;;;24.37;14.23;;;5.90;99.90;;;;;;4130322;28;20100;-63
2024/02/18 03:13:45;;;;;;;28.27;16.30;;;5.90;99.90;;;;;;4129086;28;20030;-60
2024/02/18 03:15:47;;;;;;;33.00;17.90;;;6.00;99.90;;;;;;4129713;28;20030;-60
2024/02/18 03:17:48;;;;;;;30.53;18.13;;;5.90;99.90;;;;;;4129105;28;20034;-63
2024/02/18 03:19:50;;;;;;;29.10;16.30;;;5.90;99.90;;;;;;4129249;28;20482;-59
2024/02/18 03:21:51;;;;;;;33.17;17.63;;;5.90;99.90;;;;;;4129745;28;20337;-62
2024/02/18 03:23:53;;;;;;;27.93;16.97;;;5.90;99.90;;;;;;4129410;28;20038;-61
2024/02/18 03:25:54;;;;;;;30.97;16.93;;;5.90;99.90;;;;;;4130093;28;20038;-65
2024/02/18 03:27:57;;;;;;;28.80;17.03;;;5.90;99.90;;;;;;4128666;28;20124;-61
2024/02/18 03:29:59;;;;;;;27.90;16.90;;;5.90;99.90;;;;;;4129888;28;20031;-65
2024/02/18 03:32:00;;;;;;;29.20;16.00;;;5.90;99.90;;;;;;4129076;28;20033;-64
2024/02/18 03:34:02;;;;;;;28.00;17.10;;;5.90;99.90;;;;;;4129882;28;20034;-57
2024/02/18 03:36:05;;;;;;;28.03;17.27;;;5.90;99.90;;;;;;4129075;28;20541;-64
2024/02/18 03:38:06;;;;;;;28.83;16.23;;;5.90;99.90;;;;;;4130226;28;20475;-64
2024/02/18 03:40:08;;;;;;;32.00;17.43;;;5.90;99.90;;;;;;4128960;28;20541;-65
2024/02/18 03:42:09;;;;;;;29.20;16.63;;;5.90;99.90;;;;;;4129840;28;20034;-66
2024/02/18 03:44:11;;;;;;;26.80;15.87;;;5.90;99.90;;;;;;4128707;28;20035;-62
2024/02/18 03:46:12;;;;;;;27.57;16.60;;;5.90;99.90;;;;;;4129603;28;20026;-58
2024/02/18 03:48:13;;;;;;;27.73;15.37;;;5.90;99.90;;;;;;4128925;28;20042;-56
2024/02/18 03:50:14;;;;;;;31.30;17.07;;;5.90;99.90;;;;;;4129495;28;20081;-57
2024/02/18 03:52:16;;;;;;;27.50;15.80;;;5.90;99.90;;;;;;4129032;28;20042;-55
2024/02/18 03:54:18;;;;;;;28.53;16.87;;;5.80;99.90;;;;;;4128746;28;20038;-63
2024/02/18 03:56:20;;;;;;;29.87;17.80;;;5.80;99.90;;;;;;4129346;28;20054;-59
2024/02/18 03:58:21;;;;;;;26.47;16.30;;;5.70;99.90;;;;;;4128431;28;20026;-54
2024/02/18 04:00:22;;;;;;;30.60;16.87;;;5.80;99.90;;;;;;4129283;28;20446;-64
2024/02/18 04:02:24;;;;;;;27.00;15.90;;;5.80;99.90;;;;;;4127264;28;20426;-62
2024/02/18 04:04:25;;;;;;;25.50;15.00;;;5.80;99.90;;;;;;4127766;28;20073;-57
2024/02/18 04:06:27;;;;;;;26.40;15.10;;;5.80;99.90;;;;;;4128326;28;20085;-63
2024/02/18 04:08:28;;;;;;;25.37;14.27;;;5.80;99.90;;;;;;4129457;28;20026;-64
2024/02/18 04:10:29;;;;;;;22.40;14.07;;;5.80;99.90;;;;;;4128312;28;20443;-59
2024/02/18 04:12:31;;;;;;;24.30;14.67;;;5.90;99.90;;;;;;4129111;28;20042;-63
2024/02/18 04:14:32;;;;;;;25.63;15.07;;;5.90;99.90;;;;;;4128136;28;20046;-59
2024/02/18 04:16:33;;;;;;;23.43;13.80;;;5.90;99.90;;;;;;4129795;28;20038;-65
2024/02/18 04:18:34;;;;;;;26.93;14.50;;;5.90;99.90;;;;;;4128386;28;20042;-61
2024/02/18 04:20:36;;;;;;;25.10;14.57;;;5.90;99.90;;;;;;4129293;28;20089;-63
2024/02/18 04:22:37;;;;;;;24.67;14.77;;;5.90;99.90;;;;;;4127955;28;20096;-65
2024/02/18 04:24:41;;;;;;;23.63;13.73;;;6.00;99.90;;;;;;4127749;28;20489;-57
2024/02/18 04:26:42;;;;;;;22.67;13.57;;;6.00;99.90;;;;;;4129377;28;20038;-60
2024/02/18 04:28:44;;;;;;;24.87;14.03;;;6.00;99.90;;;;;;4127572;28;20092;-61
2024/02/18 04:30:45;;;;;;;24.73;14.13;;;6.00;99.90;;;;;;4129433;28;20108;-60
2024/02/18 04:32:47;;;;;;;23.27;14.50;;;6.00;99.90;;;;;;4128334;28;20089;-62
2024/02/18 04:34:48;;;;;;;22.53;13.70;;;6.00;99.90;;;;;;4129032;28;20038;-59
2024/02/18 04:36:49;;;;;;;26.30;13.63;;;6.10;99.90;;;;;;4127766;28;20084;-60
2024/02/18 04:38:50;;;;;;;23.03;14.03;;;6.00;99.90;;;;;;4128894;28;20089;-60
2024/02/18 04:40:52;;;;;;;22.83;14.07;;;6.00;99.90;;;;;;4127895;28;20553;-59
2024/02/18 04:42:53;;;;;;;23.63;14.43;;;6.00;99.90;;;;;;4128743;28;20038;-60
2024/02/18 04:44:54;;;;;;;26.47;14.73;;;6.10;99.90;;;;;;4127534;28;20030;-58
2024/02/18 04:46:55;;;;;;;22.63;14.47;;;6.10;99.90;;;;;;4128217;28;20458;-63
2024/02/18 04:48:56;;;;;;;25.23;14.13;;;6.00;99.90;;;;;;4128210;28;20541;-61
2024/02/18 04:50:58;;;;;;;23.07;14.60;;;6.00;99.90;;;;;;4127953;28;20042;-65
2024/02/18 04:53:00;;;;;;;23.37;14.57;;;6.00;99.90;;;;;;4128492;28;20089;-64
2024/02/18 04:55:02;;;;;;;23.53;14.27;;;6.00;99.90;;;;;;4127819;28;20076;-66
2024/02/18 04:57:05;;;;;;;23.33;14.47;;;6.00;99.90;;;;;;4128570;28;20065;-61
2024/02/18 04:59:06;;;;;;;21.27;13.90;;;6.00;99.90;;;;;;4127302;28;20104;-56
2024/02/18 05:01:10;;;;;;;25.47;15.03;;;6.00;99.90;;;;;;4129046;28;20097;-64
2024/02/18 05:03:11;;;;;;;23.33;13.97;;;6.00;99.90;;;;;;4126944;28;20034;-57
2024/02/18 05:05:13;;;;;;;26.93;14.80;;;6.00;99.90;;;;;;4128620;28;20046;-59
2024/02/18 05:07:14;;;;;;;24.47;14.73;;;6.00;99.90;;;;;;4127465;28;20434;-61
2024/02/18 05:09:15;;;;;;;21.57;13.33;;;6.00;99.90;;;;;;4128941;28;20038;-58
2024/02/18 05:11:16;;;;;;;22.17;13.73;;;6.00;99.90;;;;;;4127442;28;20027;-61
2024/02/18 05:13:18;;;;;;;29.20;15.27;;;6.00;99.90;;;;;;4128225;28;20038;-58
2024/02/18 05:15:20;;;;;;;21.97;14.30;;;6.00;99.90;;;;;;4127122;28;20042;-55
2024/02/18 05:17:22;;;;;;;21.60;13.97;;;6.00;99.90;;;;;;4128803;28;20027;-60
2024/02/18 05:19:23;;;;;;;27.77;15.13;;;6.00;99.90;;;;;;4126867;28;20085;-55
2024/02/18 05:21:24;;;;;;;21.33;14.27;;;6.00;99.90;;;;;;4130591;28;20422;-57
2024/02/18 05:23:25;;;;;;;23.63;15.07;;;6.00;99.90;;;;;;4131220;28;20018;-60
2024/02/18 05:25:27;;;;;;;33.53;17.20;;;6.00;99.90;;;;;;4131472;28;20046;-59
2024/02/18 05:27:28;;;;;;;26.50;15.87;;;6.00;99.90;;;;;;4131163;28;20058;-54
2024/02/18 05:29:29;;;;;;;43.90;21.83;;;6.00;99.90;;;;;;4130927;28;20081;-57
2024/02/18 05:31:30;;;;;;;30.10;17.03;;;5.90;99.90;;;;;;4131474;28;20034;-58
2024/02/18 05:33:31;;;;;;;30.30;17.03;;;5.90;99.90;;;;;;4130444;28;20414;-58
2024/02/18 05:35:33;;;;;;;26.90;16.00;;;5.90;99.90;;;;;;4131619;28;20085;-61
2024/02/18 05:37:34;;;;;;;22.33;14.27;;;5.90;99.90;;;;;;4130520;28;20101;-58
2024/02/18 05:39:35;;;;;;;26.67;14.27;;;6.00;99.90;;;;;;4132011;28;20034;-59
2024/02/18 05:41:37;;;;;;;23.90;13.87;;;6.00;99.90;;;;;;4130429;28;20050;-53
2024/02/18 05:43:38;;;;;;;22.73;13.90;;;6.00;99.90;;;;;;4131682;28;20545;-60
2024/02/18 05:45:40;;;;;;;23.53;12.93;;;6.00;99.90;;;;;;4130452;28;20384;-60
2024/02/18 05:47:41;;;;;;;22.87;13.80;;;6.10;99.90;;;;;;4131930;28;20038;-61
2024/02/18 05:49:42;;;;;;;20.87;12.40;;;6.10;99.90;;;;;;4130129;28;20097;-64
2024/02/18 05:51:43;;;;;;;21.70;12.27;;;6.20;99.90;;;;;;4131448;28;20038;-59
2024/02/18 05:53:44;;;;;;;19.70;11.53;;;6.20;99.90;;;;;;4130620;28;20046;-59
2024/02/18 05:55:46;;;;;;;20.93;12.67;;;6.30;99.90;;;;;;4131228;28;20088;-66
2024/02/18 05:57:47;;;;;;;19.10;11.60;;;6.30;99.90;;;;;;4131203;28;20085;-65
2024/02/18 05:59:48;;;;;;;20.30;12.03;;;6.30;99.90;;;;;;4130745;28;20383;-61
2024/02/18 06:01:49;;;;;;;21.23;12.13;;;6.40;99.90;;;;;;4130798;28;20427;-65
2024/02/18 06:03:51;;;;;;;22.17;11.93;;;6.40;99.90;;;;;;4129795;28;20425;-63
2024/02/18 06:05:52;;;;;;;18.77;11.83;;;6.40;99.90;;;;;;4131196;28;20073;-64
2024/02/18 06:07:53;;;;;;;20.23;12.90;;;6.40;99.90;;;;;;4129950;28;20484;-60
2024/02/18 06:09:54;;;;;;;18.40;11.47;;;6.40;99.90;;;;;;4131665;28;20042;-58
2024/02/18 06:11:55;;;;;;;21.73;12.27;;;6.40;99.90;;;;;;4130405;28;20038;-58
2024/02/18 06:13:57;;;;;;;20.70;12.73;;;6.40;99.90;;;;;;4131441;28;20058;-61
2024/02/18 06:15:58;;;;;;;18.33;11.27;;;6.40;99.90;;;;;;4130309;28;20038;-61
2024/02/18 06:18:00;;;;;;;23.93;12.57;;;6.40;99.90;;;;;;4130156;28;20078;-63
2024/02/18 06:20:02;;;;;;;25.30;15.10;;;6.40;99.90;;;;;;4129207;28;20537;-57
2024/02/18 06:22:04;;;;;;;21.27;13.17;;;6.40;99.90;;;;;;4130912;28;20474;-63
2024/02/18 06:24:05;;;;;;;21.47;13.23;;;6.40;99.90;;;;;;4130321;28;20038;-63
2024/02/18 06:26:06;;;;;;;25.70;12.57;;;6.40;99.90;;;;;;4129569;28;20469;-60
2024/02/18 06:28:09;;;;;;;24.30;12.80;;;6.40;99.90;;;;;;4129944;28;20038;-57
2024/02/18 06:30:11;;;;;;;25.67;12.30;;;6.50;99.90;;;;;;4129661;28;20482;-70
2024/02/18 06:32:12;;;;;;;20.63;12.93;;;6.50;99.90;;;;;;4130093;28;20015;-56
2024/02/18 06:34:13;;;;;;;23.50;13.20;;;6.50;99.90;;;;;;4129780;28;20030;-62
2024/02/18 06:36:15;;;;;;;25.20;13.80;;;6.50;99.90;;;;;;4129255;28;20050;-62
2024/02/18 06:38:16;;;;;;;22.60;14.37;;;6.80;99.90;;;;;;4129968;28;20603;-64
2024/02/18 06:40:17;;;;;;;18.50;12.47;;;7.30;99.90;;;;;;4129674;28;20027;-63
2024/02/18 06:42:19;;;;;;;20.43;13.10;;;7.80;99.90;;;;;;4129185;28;20084;-61
2024/02/18 06:44:21;;;;;;;19.03;13.00;;;8.30;99.90;;;;;;4130401;28;20617;-59
2024/02/18 06:46:22;;;;;;;18.67;12.23;;;8.80;99.90;;;;;;4128276;28;20038;-63
2024/02/18 06:48:23;;;;;;;18.77;12.97;;;9.40;99.90;;;;;;4130728;28;20089;-56
2024/02/18 06:50:24;;;;;;;21.27;13.37;;;10.00;99.90;;;;;;4129050;28;20038;-58
2024/02/18 06:52:26;;;;;;;18.03;12.00;;;10.70;99.90;;;;;;4130276;28;20042;-58
2024/02/18 06:54:27;;;;;;;17.60;11.77;;;11.10;99.90;;;;;;4129652;28;20026;-62
2024/02/18 06:56:28;;;;;;;19.20;11.93;;;11.30;99.90;;;;;;4130455;28;20022;-62
2024/02/18 06:58:30;;;;;;;16.60;11.47;;;11.60;99.90;;;;;;4129677;28;20042;-64
2024/02/18 07:00:32;;;;;;;17.47;11.53;;;12.00;99.90;;;;;;4130044;28;20030;-62
2024/02/18 07:02:33;;;;;;;17.53;12.10;;;12.30;99.90;;;;;;4129108;28;20027;-60
2024/02/18 07:04:35;;;;;;;15.60;10.60;;;12.50;99.90;;;;;;4129268;28;20030;-61
2024/02/18 07:06:37;;;;;;;18.77;11.87;;;12.50;99.90;;;;;;4129976;28;20062;-68
2024/02/18 07:08:38;;;;;;;18.83;11.43;;;12.50;99.90;;;;;;4128126;28;20054;-67
2024/02/18 07:10:39;;;;;;;16.87;9.80;;;12.60;99.90;;;;;;4129092;28;20042;-63
2024/02/18 07:12:41;;;;;;;14.83;9.43;;;12.60;99.90;;;;;;4129175;28;20037;-64
2024/02/18 07:14:42;;;;;;;16.93;9.43;;;12.70;99.90;;;;;;4130268;28;20058;-62
2024/02/18 07:16:43;;;;;;;15.53;10.87;;;12.70;99.90;;;;;;4128914;28;20085;-63
2024/02/18 07:18:44;;;;;;;15.20;9.90;;;12.70;99.90;;;;;;4130206;28;20383;-65
2024/02/18 07:20:46;;;;;;;12.50;9.23;;;12.40;99.90;;;;;;4129000;28;20022;-56
2024/02/18 07:22:47;;;;;;;15.67;9.73;;;12.20;99.90;;;;;;4130465;28;20512;-64
2024/02/18 07:24:48;;;;;;;14.30;9.37;;;12.00;99.90;;;;;;4128890;28;20446;-62
2024/02/18 07:26:49;;;;;;;12.63;9.00;;;11.50;99.90;;;;;;4130451;28;20077;-62
2024/02/18 07:28:51;;;;;;;13.80;9.50;;;11.20;99.90;;;;;;4129018;28;20128;-62
2024/02/18 07:30:52;;;;;;;13.30;9.40;;;10.90;99.90;;;;;;4129395;28;20042;-59
2024/02/18 07:32:53;;;;;;;18.13;10.00;;;10.70;99.90;;;;;;4129273;28;20101;-63
2024/02/18 07:34:54;;;;;;;14.57;9.43;;;10.40;99.90;;;;;;4128899;28;20048;-68
2024/02/18 07:36:56;;;;;;;39.07;16.30;;;10.30;99.90;;;;;;4124653;28;20681;-62
2024/02/18 07:38:57;;;;;;;30.77;15.27;;;10.50;99.90;;;;;;4128467;28;20038;-57
2024/02/18 07:40:58;;;;;;;26.23;14.77;;;11.10;99.90;;;;;;4129344;28;20034;-65
2024/02/18 07:42:59;;;;;;;17.73;9.97;;;11.40;99.90;;;;;;4128770;28;20042;-63
2024/02/18 07:45:01;;;;;;;18.47;11.47;;;11.50;99.90;;;;;;4130134;28;20038;-61
2024/02/18 07:47:03;;;;;;;17.40;10.90;;;11.20;99.90;;;;;;4128840;28;20038;-63
2024/02/18 07:49:04;;;;;;;16.97;10.63;;;10.80;99.90;;;;;;4129102;28;20054;-64
2024/02/18 07:51:05;;;;;;;23.40;13.33;;;10.50;99.90;;;;;;4128101;28;20046;-63
2024/02/18 07:53:07;;;;;;;20.63;12.10;;;10.30;99.90;;;;;;4129615;28;20529;-64
2024/02/18 07:55:08;;;;;;;34.40;19.53;;;10.00;99.90;;;;;;4128356;28;20092;-60
2024/02/18 07:57:09;;;;;;;15.40;11.03;;;9.80;99.90;;;;;;4130089;28;20042;-64
2024/02/18 07:59:13;;;;;;;17.53;11.07;;;9.70;99.90;;;;;;4128481;28;20030;-65
2024/02/18 08:01:14;;;;;;;21.27;10.60;;;9.50;99.90;;;;;;4128896;28;20518;-62
2024/02/18 08:03:15;;;;;;;13.17;8.97;;;9.40;99.90;;;;;;4128219;28;20022;-62
2024/02/18 08:05:16;;;;;;;18.33;10.80;;;9.30;99.90;;;;;;4127025;28;20050;-63
2024/02/18 08:07:18;;;;;;;14.93;9.50;;;9.10;99.90;;;;;;4129026;28;20081;-62
2024/02/18 08:09:19;;;;;;;15.87;10.73;;;8.90;99.90;;;;;;4128404;28;20624;-63
2024/02/18 08:11:20;;;;;;;16.83;10.80;;;8.80;99.90;;;;;;4129331;28;20490;-62
2024/02/18 08:13:21;;;;;;;15.30;10.27;;;8.70;99.90;;;;;;4127917;28;20544;-65
2024/02/18 08:15:23;;;;;;;14.30;9.77;;;8.60;99.90;;;;;;4128905;28;20022;-62
2024/02/18 08:17:24;;;;;;;14.30;9.17;;;8.50;99.90;;;;;;4127320;28;20034;-60
2024/02/18 08:19:25;;;;;;;16.03;9.03;;;8.40;99.90;;;;;;4127891;28;20038;-66
2024/02/18 08:21:27;;;;;;;12.67;8.60;;;8.30;99.90;;;;;;4127284;28;20072;-61
2024/02/18 08:23:28;;;;;;;14.40;9.47;;;8.30;99.90;;;;;;4129122;28;20026;-62
2024/02/18 08:25:30;;;;;;;15.60;9.77;;;8.20;99.90;;;;;;4127764;28;20502;-62
2024/02/18 08:27:32;;;;;;;15.53;9.80;;;8.10;99.90;;;;;;4129451;28;20482;-63
2024/02/18 08:29:33;;;;;;;18.73;10.53;;;8.10;99.90;;;;;;4127967;28;20046;-60
2024/02/18 08:31:34;;;;;;;18.20;11.13;;;8.10;99.90;;;;;;4129176;28;20030;-63
2024/02/18 08:33:36;;;;;;;16.10;10.50;;;8.00;99.90;;;;;;4128445;28;20058;-58
2024/02/18 08:35:37;;;;;;;13.27;9.20;;;8.00;99.90;;;;;;4128055;28;20042;-66
2024/02/18 08:37:38;;;;;;;23.13;9.83;;;8.00;99.90;;;;;;4128982;28;20030;-59
2024/02/18 08:39:40;;;;;;;32.30;16.37;;;8.00;99.90;;;;;;4128071;28;20081;-65
2024/02/18 08:41:41;;;;;;;17.13;10.50;;;8.10;99.90;;;;;;4129003;28;20096;-66
2024/02/18 08:43:42;;;;;;;26.13;14.93;;;8.40;99.90;;;;;;4128403;28;20442;-59
2024/02/18 08:45:43;;;;;;;33.20;17.33;;;8.80;99.90;;;;;;4129233;28;20101;-62
2024/02/18 08:47:44;;;;;;;30.13;16.40;;;9.20;99.90;;;;;;4127625;28;20080;-58
2024/02/18 08:49:46;;;;;;;18.60;11.07;;;9.80;99.90;;;;;;4128148;28;20487;-54
2024/02/18 08:51:47;;;;;;;31.67;16.73;;;10.40;99.90;;;;;;4127900;28;20047;-55
2024/02/18 08:53:48;;;;;;;41.77;19.43;;;10.60;99.90;;;;;;4128711;28;20026;-60
2024/02/18 08:55:50;;;;;;;24.80;13.40;;;10.80;99.90;;;;;;4126396;28;20418;-60
2024/02/18 08:57:51;;;;;;;48.50;20.47;;;11.10;99.90;;;;;;4129139;28;20039;-56
2024/02/18 08:59:53;;;;;;;30.20;14.57;;;11.40;99.90;;;;;;4127617;28;20026;-59
2024/02/18 09:01:56;;;;;;;13.40;8.57;;;11.40;99.90;;;;;;4128116;28;20498;-55
2024/02/18 09:03:57;;;;;;;13.27;8.37;;;11.40;99.90;;;;;;4127327;28;20014;-60
2024/02/18 09:05:58;;;;;;;20.30;11.27;;;11.50;99.90;;;;;;4128467;28;20034;-60
2024/02/18 09:08:00;;;;;;;13.03;8.50;;;11.60;99.90;;;;;;4128305;28;20113;-55
2024/02/18 09:10:01;;;;;;;17.77;9.87;;;11.50;99.90;;;;;;4127580;28;21300;-59
2024/02/18 09:12:02;;;;;;;29.70;13.60;;;11.20;99.90;;;;;;4128434;28;20030;-58
2024/02/18 09:14:04;;;;;;;18.10;10.90;;;11.00;99.90;;;;;;4127768;28;20430;-59
2024/02/18 09:16:05;;;;;;;11.30;8.03;;;10.70;99.90;;;;;;4127667;28;20030;-61
2024/02/18 09:18:07;;;;;;;16.13;8.93;;;10.50;99.90;;;;;;4127149;28;20051;-62
2024/02/18 09:20:09;;;;;;;15.13;9.73;;;10.40;99.90;;;;;;4128572;28;20034;-59
2024/02/18 09:22:10;;;;;;;13.27;8.90;;;10.20;99.90;;;;;;4127099;28;20043;-60
2024/02/18 09:24:11;;;;;;;12.37;7.97;;;10.10;99.90;;;;;;4128619;28;20034;-60
2024/02/18 09:26:12;;;;;;;12.90;8.50;;;9.90;99.90;;;;;;4127865;28;20104;-57
2024/02/18 09:28:15;;;;;;;12.47;8.80;;;9.80;99.90;;;;;;4128861;28;20121;-59
2024/02/18 09:30:16;;;;;;;14.90;10.20;;;9.60;99.90;;;;;;4127409;28;20070;-60
2024/02/18 09:32:17;;;;;;;21.63;12.33;;;9.50;99.90;;;;;;4127869;28;20093;-59
2024/02/18 09:34:19;;;;;;;16.17;10.77;;;9.40;99.90;;;;;;4127447;28;20038;-59
2024/02/18 09:36:20;;;;;;;14.97;10.00;;;9.40;99.90;;;;;;4128150;28;20046;-60
2024/02/18 09:38:21;;;;;;;15.77;11.23;;;9.40;99.90;;;;;;4128148;28;20444;-64
2024/02/18 09:40:23;;;;;;;19.33;11.33;;;9.40;99.90;;;;;;4127184;28;20089;-60
2024/02/18 09:42:26;;;;;;;19.33;11.57;;;9.40;99.90;;;;;;4128068;28;20022;-57
2024/02/18 09:44:28;;;;;;;19.83;11.37;;;9.30;99.90;;;;;;4127206;28;20141;-57
2024/02/18 09:46:32;;;;;;;16.97;11.23;;;9.20;99.90;;;;;;4128561;28;20030;-60
2024/02/18 09:48:35;;;;;;;13.47;9.97;;;9.20;99.90;;;;;;4125808;28;20085;-61
2024/02/18 09:50:36;;;;;;;14.90;10.87;;;9.20;99.90;;;;;;4128501;28;20061;-58
2024/02/18 09:52:41;;;;;;;20.53;11.70;;;9.30;99.90;;;;;;4127309;28;20471;-60
2024/02/18 09:54:42;;;;;;;20.13;10.97;;;9.30;99.90;;;;;;4127825;28;20085;-61
2024/02/18 09:56:44;;;;;;;15.00;10.30;;;9.30;99.90;;;;;;4126986;28;20054;-54
2024/02/18 09:58:45;;;;;;;15.63;9.83;;;9.40;99.90;;;;;;4128480;28;20038;-58
2024/02/18 10:00:46;;;;;;;17.10;11.57;;;9.30;99.90;;;;;;4126283;28;20470;-61
2024/02/18 10:02:48;;;;;;;21.67;12.73;;;9.30;99.90;;;;;;4116785;28;20089;-57
2024/02/18 10:04:49;;;;;;;22.93;13.50;;;9.30;99.90;;;;;;4123037;28;20068;-61
2024/02/18 10:06:52;;;;;;;22.80;13.47;;;9.40;99.90;;;;;;4129195;28;20085;-63
2024/02/18 10:08:57;;;;;;;24.07;13.33;;;9.70;99.90;;;;;;4130330;28;20092;-57
2024/02/18 10:10:58;;;;;;;19.17;11.97;;;9.60;99.90;;;;;;4129729;28;20054;-61
2024/02/18 10:13:02;;;;;;;16.23;10.87;;;9.60;99.90;;;;;;4130395;28;20433;-58
2024/02/18 10:15:05;;;;;;;18.07;11.73;;;9.60;99.90;;;;;;4130425;28;20038;-55
2024/02/18 10:17:06;;;;;;;14.03;8.87;;;9.90;99.90;;;;;;4130339;28;20026;-57
2024/02/18 10:19:08;;;;;;;15.10;8.80;;;10.00;99.90;;;;;;4130235;28;20054;-61
2024/02/18 10:21:14;;;;;;;14.60;9.50;;;10.20;99.90;;;;;;4130925;28;20030;-60
2024/02/18 10:23:16;;;;;;;12.00;8.73;;;10.40;99.90;;;;;;4129214;28;20031;-53